Time;durP1;ratioP1;P1;durP2;ratioP2;P2;SDS_P1;SDS_P2;PMS_P1;PMS_P2;Temp;Humidity;BMP_temperature;BMP_pressure;BME280_temperature;BME280_humidity;BME280_pressure;Samples;Min_cycle;Max_cycle;Signal;HPM_P1;HPM_P2
2022/11/12 00:00:36;;;;;;;;;;;;;;;-146.58;100.00;69501.63;5071549;28;19955;-62
2022/11/12 00:03:01;;;;;;;;;;;;;;;-146.58;100.00;69501.63;5069300;28;20326;-62
2022/11/12 00:05:27;;;;;;;;;;;;;;;-146.58;100.00;69501.63;5071353;28;19950;-62
2022/11/12 00:07:52;;;;;;;;;;;;;;;-146.58;100.00;69501.63;5069238;28;19948;-60
2022/11/12 00:10:17;;;;;;;;;;;;;;;-146.58;100.00;69501.63;5070995;28;19920;-64
2022/11/12 00:12:43;;;;;;;;;;;;;;;-146.58;100.00;69501.63;5069548;28;19956;-63
2022/11/12 00:15:08;;;;;;;;;;;;;;;-146.58;100.00;69501.63;5071156;28;20003;-63
2022/11/12 00:17:33;;;;;;;;;;;;;;;-146.58;100.00;69501.63;5069508;28;20358;-63
2022/11/12 00:19:59;;;;;;;;;;;;;;;-146.58;100.00;69501.63;5070992;28;19957;-63
2022/11/12 00:22:24;;;;;;;;;;;;;;;-146.58;100.00;69501.63;5069666;28;20003;-63
2022/11/12 00:24:49;;;;;;;;;;;;;;;-146.58;100.00;69501.63;5070799;28;19909;-63
2022/11/12 00:27:14;;;;;;;;;;;;;;;-146.58;100.00;69501.63;5069449;28;19916;-63
2022/11/12 00:29:39;;;;;;;;;;;;;;;-146.58;100.00;69501.63;5070890;28;20382;-63
2022/11/12 00:32:05;;;;;;;;;;;;;;;-146.58;100.00;69501.63;5069594;28;20406;-63
2022/11/12 00:34:30;;;;;;;;;;;;;;;-146.58;100.00;69501.63;5070497;28;19912;-63
2022/11/12 00:36:55;;;;;;;;;;;;;;;-146.58;100.00;69501.63;5069257;28;20315;-63
2022/11/12 00:39:21;;;;;;;;;;;;;;;-146.58;100.00;69501.63;5070904;28;19977;-63
2022/11/12 00:41:46;;;;;;;;;;;;;;;-146.58;100.00;69501.63;5063346;28;19944;-63
2022/11/12 00:44:11;;;;;;;;;;;;;;;-146.58;100.00;69501.63;5051009;28;19909;-63
2022/11/12 00:46:36;;;;;;;;;;;;;;;-146.58;100.00;69501.63;5049409;28;19920;-63
2022/11/12 00:49:01;;;;;;;;;;;;;;;-146.58;100.00;69501.63;5050342;28;20422;-63
2022/11/12 00:51:26;;;;;;;;;;;;;;;-146.58;100.00;69501.63;5049420;28;19920;-63
2022/11/12 00:53:52;;;;;;;;;;;;;;;-146.58;100.00;69501.63;5050240;28;19913;-63
2022/11/12 00:56:17;;;;;;;;;;;;;;;-146.58;100.00;69501.63;5049079;28;19919;-63
2022/11/12 00:58:42;;;;;;;;;;;;;;;-146.58;100.00;69501.63;5050838;28;19962;-63
2022/11/12 01:01:09;;;;;;;;;;;;;;;-146.58;100.00;69501.63;5049375;28;19912;-63
2022/11/12 01:03:34;;;;;;;;;;;;;;;-146.58;100.00;69501.63;5050572;28;19912;-63
2022/11/12 01:06:03;;;;;;;;;;;;;;;-146.58;100.00;69501.63;5064905;28;19957;-63
2022/11/12 01:08:29;;;;;;;;;;;;;;;-146.58;100.00;69501.63;5069302;28;20391;-63
2022/11/12 01:10:54;;;;;;;;;;;;;;;-146.58;100.00;69501.63;5073606;28;19912;-63
2022/11/12 01:13:19;;;;;;;;;;;;;;;-146.58;100.00;69501.63;5072770;28;20005;-63
2022/11/12 01:15:44;;;;;;;;;;;;;;;-146.58;100.00;69501.63;5073793;28;20384;-63
2022/11/12 01:18:10;;;;;;;;;;;;;;;-146.58;100.00;69501.63;5072396;28;19912;-63
2022/11/12 01:20:36;;;;;;;;;;;;;;;-146.58;100.00;69501.63;5073874;28;19908;-61
2022/11/12 01:23:01;;;;;;;;;;;;;;;-146.58;100.00;69501.63;5072527;28;20297;-61
2022/11/12 01:25:26;;;;;;;;;;;;;;;-146.58;100.00;69501.63;5073747;28;19915;-61
2022/11/12 01:27:52;;;;;;;;;;;;;;;-146.58;100.00;69501.63;5072408;28;20037;-61
2022/11/12 01:30:17;;;;;;;;;;;;;;;-146.58;100.00;69501.63;5073972;28;19908;-61
2022/11/12 01:32:42;;;;;;;;;;;;;;;-146.58;100.00;69501.63;5071775;28;19970;-60
2022/11/12 01:35:08;;;;;;;;;;;;;;;-146.58;100.00;69501.63;5065936;28;19999;-60
2022/11/12 01:37:33;;;;;;;;;;;;;;;-146.58;100.00;69501.63;5052421;28;19920;-60
2022/11/12 01:39:58;;;;;;;;;;;;;;;-146.58;100.00;69501.63;5053398;28;19959;-60
2022/11/12 01:42:27;;;;;;;;;;;;;;;-146.58;100.00;69501.63;5052439;28;20372;-60
2022/11/12 01:44:52;;;;;;;;;;;;;;;-146.58;100.00;69501.63;5053340;28;19928;-60
2022/11/12 01:47:35;;;;;;;;;;;;;;;-146.58;100.00;69501.63;5052107;28;19916;-60
2022/11/12 01:50:13;;;;;;;;;;;;;;;-146.58;100.00;69501.63;5053424;28;19916;-60
2022/11/12 01:52:45;;;;;;;;;;;;;;;-146.58;100.00;69501.63;5051787;28;19920;-60
2022/11/12 01:55:15;;;;;;;;;;;;;;;-146.58;100.00;69501.63;5053167;28;20423;-60
2022/11/12 01:57:42;;;;;;;;;;;;;;;-146.58;100.00;69501.63;5064535;28;19920;-61
2022/11/12 02:00:09;;;;;;;;;;;;;;;-146.58;100.00;69501.63;5073504;28;19908;-60
2022/11/12 02:02:38;;;;;;;;;;;;;;;-146.58;100.00;69501.63;5066031;28;19927;-60
2022/11/12 02:05:04;;;;;;;;;;;;;;;-146.58;100.00;69501.63;5053289;28;20299;-60
2022/11/12 02:07:30;;;;;;;;;;;;;;;-146.58;100.00;69501.63;5051613;28;19921;-60
2022/11/12 02:09:56;;;;;;;;;;;;;;;-146.58;100.00;69501.63;5052784;28;19915;-60
2022/11/12 02:15:06;;;;;;;;;;;;;;;-146.58;100.00;69501.63;5053010;28;19919;-60
2022/11/12 02:17:31;;;;;;;;;;;;;;;-146.58;100.00;69501.63;5056559;28;19912;-60
2022/11/12 02:19:57;;;;;;;;;;;;;;;-146.58;100.00;69501.63;5072648;28;19916;-60
2022/11/12 02:22:23;;;;;;;;;;;;;;;-146.58;100.00;69501.63;5070890;28;19912;-60
2022/11/12 02:24:48;;;;;;;;;;;;;;;-146.58;100.00;69501.63;5072266;28;19912;-60
2022/11/12 02:27:13;;;;;;;;;;;;;;;-146.58;100.00;69501.63;5071393;28;19935;-61
2022/11/12 02:29:45;;;;;;;;;;;;;;;-146.58;100.00;69501.63;5070973;28;19908;-61
2022/11/12 02:32:10;;;;;;;;;;;;;;;-146.58;100.00;69501.63;5071144;28;19920;-60
2022/11/12 02:34:35;;;;;;;;;;;;;;;-146.58;100.00;69501.63;5072483;28;19915;-61
2022/11/12 02:37:01;;;;;;;;;;;;;;;-146.58;100.00;69501.63;5071064;28;19962;-61
2022/11/12 02:39:26;;;;;;;;;;;;;;;-146.58;100.00;69501.63;5072408;28;19908;-63
2022/11/12 02:41:51;;;;;;;;;;;;;;;-146.58;100.00;69501.63;5070895;28;19936;-63
2022/11/12 02:44:16;;;;;;;;;;;;;;;-146.58;100.00;69501.63;5072272;28;20351;-62
2022/11/12 02:46:41;;;;;;;;;;;;;;;-146.58;100.00;69501.63;5070787;28;19916;-62
2022/11/12 02:49:07;;;;;;;;;;;;;;;-146.58;100.00;69501.63;5072382;28;19994;-62
2022/11/12 02:51:32;;;;;;;;;;;;;;;-146.58;100.00;69501.63;5071106;28;20023;-63
2022/11/12 02:53:57;;;;;;;;;;;;;;;-146.58;100.00;69501.63;5071659;28;19916;-63
2022/11/12 02:56:22;;;;;;;;;;;;;;;-146.58;100.00;69501.63;5068588;28;19935;-63
2022/11/12 02:58:47;;;;;;;;;;;;;;;-146.58;100.00;69501.63;5052093;28;20399;-63
2022/11/12 03:01:13;;;;;;;;;;;;;;;-146.58;100.00;69501.63;5050579;28;19951;-62
2022/11/12 03:03:38;;;;;;;;;;;;;;;-146.58;100.00;69501.63;5051940;28;19913;-63
2022/11/12 03:06:03;;;;;;;;;;;;;;;-146.58;100.00;69501.63;5050872;28;20248;-62
2022/11/12 03:08:28;;;;;;;;;;;;;;;-146.58;100.00;69501.63;5051834;28;20373;-63
2022/11/12 03:10:53;;;;;;;;;;;;;;;-146.58;100.00;69501.63;5051719;28;19908;-62
2022/11/12 03:13:19;;;;;;;;;;;;;;;4.36;100.00;161707.97;5070426;28;19923;-63
2022/11/12 03:15:44;;;;;;;;;;;;;;;3.73;100.00;161544.03;5071294;28;19913;-62
2022/11/12 03:18:10;;;;;;;;;;;;;;;3.69;100.00;161533.25;5070491;28;19912;-62
2022/11/12 03:20:35;;;;;;;;;;;;;;;3.68;100.00;161530.59;5071592;28;19912;-62
2022/11/12 03:23:03;;;;;;;;;;;;;;;3.69;100.00;161533.25;5069932;28;20282;-62
2022/11/12 03:25:29;;;;;;;;;;;;;;;3.71;100.00;161537.31;5071504;28;19958;-62
2022/11/12 03:28:02;;;;;;;;;;;;;;;3.71;100.00;161538.63;5070207;28;20313;-62
2022/11/12 03:30:28;;;;;;;;;;;;;;;3.63;100.00;161517.13;5071394;28;19916;-62
2022/11/12 03:32:53;;;;;;;;;;;;;;;3.57;100.00;161501.03;5069694;28;19916;-62
2022/11/12 03:35:18;;;;;;;;;;;;;;;3.53;100.00;161490.31;5064484;28;19920;-62
2022/11/12 03:37:44;;;;;;;;;;;;;;;3.48;100.00;161479.53;5049621;28;19913;-62
2022/11/12 03:40:09;;;;;;;;;;;;;;;3.43;100.00;161466.09;5064171;28;19916;-62
2022/11/12 03:42:34;;;;;;;;;;;;;;;3.42;100.00;161463.41;5070236;28;20288;-61
2022/11/12 03:44:59;;;;;;;;;;;;;;;3.41;100.00;161460.72;5071038;28;20057;-61
2022/11/12 03:47:24;;;;;;;;;;;;;;;3.44;100.00;161467.44;5070096;28;19920;-61
2022/11/12 03:49:49;;;;;;;;;;;;;;;3.39;100.00;161454.00;5071320;28;19916;-62
2022/11/12 03:52:15;;;;;;;;;;;;;;;3.30;100.00;161431.19;5069602;28;19916;-61
2022/11/12 03:54:40;;;;;;;;;;;;;;;3.24;100.00;161416.41;5070695;28;19912;-61
2022/11/12 03:57:05;;;;;;;;;;;;;;;-146.58;100.00;69501.63;5070236;28;19916;-61
2022/11/12 03:59:30;;;;;;;;;;;;;;;-146.58;100.00;69501.63;5071243;28;19915;-62
2022/11/12 04:01:55;;;;;;;;;;;;;;;3.03;100.00;161361.31;5069540;28;20506;-61
2022/11/12 04:04:20;;;;;;;;;;;;;;;2.96;100.00;161342.50;5071488;28;19909;-61
2022/11/12 04:09:29;;;;;;;;;;;;;;;2.88;100.00;161321.03;5051290;28;19954;-62
2022/11/12 04:13:26;;;;;;;;;;;;;;;2.83;100.00;161310.31;5049407;28;19999;-62
2022/11/12 04:14:40;;;;;;;;;;;;;;;2.84;100.00;161313.00;5050503;28;19992;-61
2022/11/12 04:22:33;;;;;;;;;;;;;;;2.84;100.00;161313.00;5049497;28;19920;-61
2022/11/12 04:27:42;;;;;;;;;;;;;;;2.85;100.00;161315.69;5059351;28;19923;-61
2022/11/12 04:30:17;;;;;;;;;;;;;;;2.87;100.00;161318.38;5070830;28;20318;-60
2022/11/12 04:32:55;;;;;;;;;;;;;;;2.82;100.00;161306.28;5069466;28;19916;-60
2022/11/12 04:35:21;;;;;;;;;;;;;;;2.76;100.00;161290.13;5069393;28;19956;-60
2022/11/12 04:37:47;;;;;;;;;;;;;;;2.73;100.00;161283.44;5068737;28;20329;-60
2022/11/12 04:45:47;;;;;;;;;;;;;;;2.67;100.00;161267.31;5074065;28;19935;-62
2022/11/12 04:48:12;;;;;;;;;;;;;;;2.65;100.00;161263.31;5073336;28;20334;-62
2022/11/12 04:50:37;;;;;;;;;;;;;;;2.64;100.00;161259.31;5072772;28;19951;-62
2022/11/12 04:53:02;;;;;;;;;;;;;;;2.59;100.00;161247.22;5072868;28;19920;-62
2022/11/12 04:55:28;;;;;;;;;;;;;;;2.58;100.00;161243.16;5074562;28;19912;-62
2022/11/12 04:57:53;;;;;;;;;;;;;;;2.59;100.00;161245.84;5072870;28;19989;-62
2022/11/12 05:00:18;;;;;;;;;;;;;;;2.58;100.00;161243.16;5072513;28;19913;-62
2022/11/12 05:02:43;;;;;;;;;;;;;;;2.54;100.00;161235.13;5064008;28;19983;-62
2022/11/12 05:05:08;;;;;;;;;;;;;;;2.52;100.00;161229.75;5054512;28;20271;-62
2022/11/12 05:07:33;;;;;;;;;;;;;;;2.59;100.00;161245.84;5052590;28;19921;-62
2022/11/12 05:09:59;;;;;;;;;;;;;;;2.62;100.00;161253.91;5055145;28;19916;-62
2022/11/12 05:12:24;;;;;;;;;;;;;;;2.63;100.00;161256.59;5052850;28;20375;-66
2022/11/12 05:14:49;;;;;;;;;;;;;;;2.65;100.00;161261.94;5060206;28;20366;-64
2022/11/12 05:17:14;;;;;;;;;;;;;;;2.65;100.00;161261.94;5057814;28;19962;-64
2022/11/12 05:19:39;;;;;;;;;;;;;;;2.66;100.00;161266.00;5055037;28;19908;-64
2022/11/12 05:22:05;;;;;;;;;;;;;;;2.63;100.00;161257.94;5069053;28;19923;-64
2022/11/12 05:24:31;;;;;;;;;;;;;;;2.65;100.00;161263.31;5074096;28;19908;-64
2022/11/12 05:26:56;;;;;;;;;;;;;;;2.66;100.00;161266.00;5057520;28;20493;-62
2022/11/12 05:29:21;;;;;;;;;;;;;;;2.65;100.00;161263.31;5054001;28;19908;-62
2022/11/12 05:31:46;;;;;;;;;;;;;;;2.67;100.00;161267.31;5052218;28;20264;-61
2022/11/12 05:34:12;;;;;;;;;;;;;;;2.66;100.00;161264.63;5053549;28;19999;-61
2022/11/12 05:36:37;;;;;;;;;;;;;;;2.63;100.00;161256.59;5056986;28;19921;-61
2022/11/12 05:39:03;;;;;;;;;;;;;;;2.56;100.00;161237.81;5073792;28;19952;-61
2022/11/12 05:41:28;;;;;;;;;;;;;;;2.49;100.00;161221.72;5072166;28;19928;-61
2022/11/12 05:43:53;;;;;;;;;;;;;;;2.48;100.00;161219.03;5072407;28;20355;-61
2022/11/12 05:46:19;;;;;;;;;;;;;;;2.48;100.00;161217.66;5072086;28;19912;-61
2022/11/12 05:48:44;;;;;;;;;;;;;;;2.45;100.00;161210.94;5073485;28;19935;-61
2022/11/12 05:51:12;;;;;;;;;;;;;;;2.45;100.00;161210.94;5071760;28;19908;-62
2022/11/12 05:53:37;;;;;;;;;;;;;;;2.47;100.00;161214.97;5073232;28;19955;-60
2022/11/12 05:56:03;;;;;;;;;;;;;;;2.45;100.00;161209.63;5071943;28;20334;-63
2022/11/12 05:58:28;;;;;;;;;;;;;;;2.41;100.00;161198.84;5073330;28;19908;-63
2022/11/12 06:00:54;;;;;;;;;;;;;;;2.32;100.00;161177.38;5073446;28;20425;-63
2022/11/12 06:03:19;;;;;;;;;;;;;;;2.23;100.00;161153.25;5062156;28;20286;-61
2022/11/12 06:05:44;;;;;;;;;;;;;;;2.12;100.00;161125.06;5052801;28;20283;-61
2022/11/12 06:08:09;;;;;;;;;;;;;;;2.07;100.00;161111.59;5051697;28;19924;-61
2022/11/12 06:10:34;;;;;;;;;;;;;;;1.98;100.00;161088.81;5053277;28;19956;-63
2022/11/12 06:12:59;;;;;;;;;;;;;;;1.87;100.00;161060.63;5057354;28;20409;-63
2022/11/12 06:15:25;;;;;;;;;;;;;;;1.82;100.00;161047.22;5072143;28;20343;-63
2022/11/12 06:17:51;;;;;;;;;;;;;;;1.77;100.00;161033.78;5071371;28;19920;-63
2022/11/12 06:20:16;;;;;;;;;;;;;;;1.70;100.00;161015.00;5071314;28;20267;-62
2022/11/12 06:22:41;;;;;;;;;;;;;;;1.62;100.00;160993.53;5071185;28;19935;-59
2022/11/12 06:25:07;;;;;;;;;;;;;;;1.58;100.00;160985.50;5072681;28;19961;-59
2022/11/12 06:27:32;;;;;;;;;;;;;;;1.58;100.00;160985.50;5071216;28;19958;-59
2022/11/12 06:29:57;;;;;;;;;;;;;;;1.60;100.00;160988.19;5072433;28;19965;-59
2022/11/12 06:32:23;;;;;;;;;;;;;;;1.54;100.00;160974.75;5071447;28;20014;-59
2022/11/12 06:34:49;;;;;;;;;;;;;;;1.53;100.00;160972.03;5072290;28;19912;-59
2022/11/12 06:37:14;;;;;;;;;;;;;;;1.50;100.00;160964.03;5070981;28;20614;-59
2022/11/12 06:39:39;;;;;;;;;;;;;;;1.52;100.00;160969.41;5072623;28;19909;-59
2022/11/12 06:42:05;;;;;;;;;;;;;;;1.49;100.00;160961.34;5071207;28;19912;-59
2022/11/12 06:44:30;;;;;;;;;;;;;;;1.51;100.00;160965.34;5072225;28;19909;-59
2022/11/12 06:46:55;;;;;;;;;;;;;;;1.53;100.00;160972.03;5070997;28;20136;-59
2022/11/12 06:49:20;;;;;;;;;;;;;;;1.55;100.00;160977.44;5072416;28;19909;-59
2022/11/12 06:51:45;;;;;;;;;;;;;;;1.55;100.00;160977.44;5070386;28;19912;-59
2022/11/12 06:54:10;;;;;;;;;;;;;;;1.58;100.00;160985.50;5072319;28;19955;-59
2022/11/12 06:56:36;;;;;;;;;;;;;;;1.61;100.00;160990.81;5071169;28;19912;-59
2022/11/12 06:59:01;;;;;;;;;;;;;;;1.65;100.00;161001.59;5071666;28;19908;-59
2022/11/12 07:01:26;;;;;;;;;;;;;;;1.64;100.00;160998.91;5070935;28;19914;-59
2022/11/12 07:03:52;;;;;;;;;;;;;;;1.65;100.00;161001.59;5072018;28;20441;-59
2022/11/12 07:06:19;;;;;;;;;;;;;;;1.65;100.00;161001.59;5069931;28;19931;-59
2022/11/12 07:08:44;;;;;;;;;;;;;;;1.64;100.00;160998.91;5071957;28;20383;-59
2022/11/12 07:11:09;;;;;;;;;;;;;;;1.61;100.00;160990.81;5070547;28;19995;-58
2022/11/12 07:13:35;;;;;;;;;;;;;;;1.60;100.00;160988.19;5071852;28;19920;-59
2022/11/12 07:16:01;;;;;;;;;;;;;;;1.54;100.00;160974.75;5071830;28;20251;-59
2022/11/12 07:18:26;;;;;;;;;;;;;;;1.55;100.00;160977.44;5050732;28;19934;-59
2022/11/12 07:20:56;;;;;;;;;;;;;;;1.57;100.00;160982.81;5051760;28;19912;-59
2022/11/12 07:23:21;;;;;;;;;;;;;;;1.64;100.00;160998.91;5069719;28;19913;-59
2022/11/12 07:25:46;;;;;;;;;;;;;;;1.70;100.00;161016.34;5071466;28;19916;-59
2022/11/12 07:28:11;;;;;;;;;;;;;;;1.72;100.00;161020.38;5070006;28;19935;-59
2022/11/12 07:30:37;;;;;;;;;;;;;;;1.72;100.00;161020.38;5071929;28;20282;-59
2022/11/12 07:33:02;;;;;;;;;;;;;;;1.78;100.00;161036.47;5070250;28;19924;-59
2022/11/12 07:35:27;;;;;;;;;;;;;;;1.87;100.00;161060.63;5068362;28;19977;-59
2022/11/12 07:37:52;;;;;;;;;;;;;;;2.01;100.00;160697.97;5066148;28;19919;-59
2022/11/12 07:40:18;;;;;;;;;;;;;;;2.01;100.00;160697.97;5071332;28;19913;-59
2022/11/12 07:42:43;;;;;;;;;;;;;;;2.27;100.00;156161.50;5057573;28;19912;-59
2022/11/12 07:45:08;;;;;;;;;;;;;;;2.36;100.00;152828.19;5051476;28;19919;-59
2022/11/12 07:47:33;;;;;;;;;;;;;;;2.38;100.00;151093.41;5050023;28;19920;-59
2022/11/12 07:49:59;;;;;;;;;;;;;;;2.42;100.00;149364.16;5054164;28;20394;-59
2022/11/12 07:52:24;;;;;;;;;;;;;;;2.49;100.00;147642.81;5069923;28;19917;-59
2022/11/12 07:54:49;;;;;;;;;;;;;;;2.59;100.00;145926.56;5060125;28;19952;-59
2022/11/12 07:57:14;;;;;;;;;;;;;;;2.71;100.00;143870.22;5049749;28;19935;-59
2022/11/12 07:59:39;;;;;;;;;;;;;;;2.76;100.00;142839.75;5050776;28;20306;-59
2022/11/12 08:02:08;;;;;;;;;;;;;;;2.87;100.00;141473.75;5049767;28;20006;-59
2022/11/12 08:04:33;;;;;;;;;;;;;;;2.99;100.00;140112.34;5051202;28;19919;-59
2022/11/12 08:06:58;;;;;;;;;;;;;;;3.13;100.00;138408.16;5049476;28;19920;-59
2022/11/12 08:09:24;;;;;;;;;;;;;;;3.22;100.00;137037.50;5051152;28;20430;-59
2022/11/12 08:11:49;;;;;;;;;;;;;;;3.32;100.00;135671.41;5049101;28;19913;-59
2022/11/12 08:14:14;;;;;;;;;;;;;;;3.46;100.00;133966.00;5050880;28;20008;-59
2022/11/12 08:16:39;;;;;;;;;;;;;;;3.62;100.00;131917.91;5049571;28;20355;-59
2022/11/12 08:19:04;;;;;;;;;;;;;;;3.78;100.00;129870.84;5051836;28;19909;-59
2022/11/12 08:21:29;;;;;;;;;;;;;;;3.96;100.00;127825.81;5053879;28;20003;-59
2022/11/12 08:23:55;;;;;;;;;;;;;;;4.11;100.00;125776.50;5054854;28;19929;-59
2022/11/12 08:26:20;;;;;;;;;;;;;;;4.34;100.00;123393.69;5053118;28;19912;-59
2022/11/12 08:28:45;;;;;;;;;;;;;;;4.58;100.00;120669.00;5054924;28;19909;-59
2022/11/12 08:31:12;;;;;;;;;;;;;;;5.20;100.00;114893.78;5053604;28;19955;-59
2022/11/12 08:33:38;;;;;;;;;;;;;;;5.36;100.00;112844.50;5054475;28;19913;-59
2022/11/12 08:36:04;;;;;;;;;;;;;;;5.56;100.00;111495.00;5053414;28;20295;-59
2022/11/12 08:38:29;;;;;;;;;;;;;;;6.22;100.00;106414.75;5055197;28;19931;-59
2022/11/12 08:40:58;;;;;;;;;;;;;;;6.80;100.00;101662.84;5054417;28;19908;-59
2022/11/12 08:43:23;;;;;;;;;;;;;;;7.20;100.00;98264.13;5065778;28;19912;-59
2022/11/12 08:45:49;;;;;;;;;;;;;;;7.54;100.00;94856.22;5073875;28;20282;-59
2022/11/12 08:48:14;;;;;;;;;;;;;;;8.09;100.00;91130.28;5072944;28;19960;-59
2022/11/12 08:50:40;;;;;;;;;;;;;;;8.39;100.00;89096.75;5074762;28;19915;-59
2022/11/12 08:53:06;;;;;;;;;;;;;;;8.66;100.00;88096.09;5073162;28;19971;-59
2022/11/12 08:55:32;;;;;;;;;;;;;;;8.75;100.00;88455.06;5074216;28;19908;-59
2022/11/12 08:58:00;;;;;;;;;;;;;;;9.00;100.00;89528.44;5072781;28;19916;-59
2022/11/12 09:00:26;;;;;;;;;;;;;;;9.06;100.00;93696.00;5068811;28;20375;-59
2022/11/12 09:02:51;;;;;;;;;;;;;;;9.19;100.00;100310.91;5052825;28;19947;-59
2022/11/12 09:05:17;;;;;;;;;;;;;;;9.38;100.00;112520.97;5054219;28;19908;-59
2022/11/12 09:07:42;;;;;;;;;;;;;;;9.33;100.00;141189.84;5052492;28;19921;-59
2022/11/12 09:10:07;;;;;;;;;;;;;;;9.27;100.00;162987.28;5054216;28;20027;-59
2022/11/12 09:12:32;;;;;;;;;;;;;;;9.33;100.00;163003.44;5052479;28;20294;-59
2022/11/12 09:14:57;;;;;;;;;;;;;;;9.55;100.00;163060.09;5054179;28;20054;-59
2022/11/12 09:17:23;;;;;;;;;;;;;;;9.68;100.00;163096.47;5052978;28;20260;-59
2022/11/12 09:19:48;;;;;;;;;;;;;;;9.80;100.00;163127.50;5053538;28;19912;-59
2022/11/12 09:22:13;;;;;;;;;;;;;;;10.06;100.00;163195.00;5052753;28;19913;-59
2022/11/12 09:24:38;;;;;;;;;;;;;;;10.26;100.00;163246.25;5053920;28;19912;-59
2022/11/12 09:27:03;;;;;;;;;;;;;;;10.32;100.00;163262.44;5052225;28;20565;-59
2022/11/12 09:29:28;;;;;;;;;;;;;;;10.71;100.00;163365.09;5053656;28;19908;-59
2022/11/12 09:31:54;;;;;;;;;;;;;;;11.24;100.00;163502.81;5052179;28;19974;-59
2022/11/12 09:34:19;;;;;;;;;;;;;;;11.64;100.00;163606.78;5055994;28;19920;-60
2022/11/12 09:36:44;;;;;;;;;;;;;;;12.23;100.00;163762.22;5073339;28;20355;-59
2022/11/12 09:39:09;;;;;;;;;;;;;;;12.76;100.00;163901.38;5072607;28;19923;-59
2022/11/12 09:41:39;;;;;;;;;;;;;;;13.45;100.00;164081.22;5073354;28;20011;-60
2022/11/12 09:44:08;;;;;;;;;;;;;;;-146.58;100.00;69501.63;5072384;28;20333;-60
2022/11/12 09:46:46;;;;;;;;;;;;;;;-146.58;100.00;69501.63;5070504;28;19908;-60
2022/11/12 09:49:15;;;;;;;;;;;;;;;-146.58;100.00;69501.63;5071716;28;20251;-60
2022/11/12 09:52:06;;;;;;;;;;;;;;;-146.58;100.00;69501.63;5073197;28;19917;-60
2022/11/12 09:54:33;;;;;;;;;;;;;;;-146.58;100.00;69501.63;5063444;28;20298;-59
2022/11/12 09:56:59;;;;;;;;;;;;;;;-146.58;100.00;69501.63;5071474;28;19923;-59
2022/11/12 09:59:29;;;;;;;;;;;;;;;-146.58;100.00;69501.63;5073419;28;20283;-61
2022/11/12 10:01:57;;;;;;;;;;;;;;;-146.58;100.00;69501.63;5073220;28;20371;-60
2022/11/12 10:04:43;;;;;;;;;;;;;;;-146.58;100.00;69501.63;5064467;28;19924;-60
2022/11/12 10:07:14;;;;;;;;;;;;;;;-146.58;100.00;69501.63;5051892;28;19923;-60
2022/11/12 10:09:46;;;;;;;;;;;;;;;-146.58;100.00;69501.63;5052510;28;19924;-60
2022/11/12 10:12:41;;;;;;;;;;;;;;;-146.58;100.00;69501.63;5051707;28;19909;-59
2022/11/12 10:18:31;;;;;;;;;;;;;;;-146.58;100.00;69501.63;5068836;28;19919;-60
2022/11/12 10:21:15;;;;;;;;;;;;;;;14.54;100.00;164366.63;5055358;28;20332;-60
2022/11/12 10:23:50;;;;;;;;;;;;;;;14.22;100.00;164282.78;5051287;28;19923;-61
2022/11/12 10:26:17;;;;;;;;;;;;;;;14.06;100.00;164240.81;5052673;28;19913;-60
2022/11/12 10:28:46;;;;;;;;;;;;;;;13.99;100.00;164221.88;5049499;28;20357;-60
2022/11/12 10:31:13;;;;;;;;;;;;;;;13.98;100.00;164219.16;5051411;28;19920;-60
2022/11/12 10:33:39;;;;;;;;;;;;;;;13.93;100.00;164208.38;5069602;28;19920;-60
2022/11/12 10:36:14;;;;;;;;;;;;;;;14.08;100.00;164246.25;5071084;28;19908;-59
2022/11/12 10:38:41;;;;;;;;;;;;;;;14.18;100.00;164273.31;5072451;28;19908;-60
2022/11/12 10:41:25;;;;;;;;;;;;;;;14.27;100.00;164296.28;5070363;28;20382;-60
2022/11/12 10:44:00;;;;;;;;;;;;;;;14.35;100.00;164316.56;5072099;28;19908;-60
2022/11/12 10:46:27;;;;;;;;;;;;;;;14.48;100.00;164351.78;5071066;28;20002;-60
2022/11/12 10:48:56;;;;;;;;;;;;;;;14.62;100.00;164386.94;5072235;28;20294;-60
2022/11/12 10:51:25;;;;;;;;;;;;;;;14.63;100.00;164389.66;5071033;28;19921;-60
2022/11/12 10:53:50;;;;;;;;;;;;;;;14.69;100.00;164405.94;5068864;28;19940;-60
2022/11/12 10:56:25;;;;;;;;;;;;;;;14.46;100.00;164346.34;5068391;28;20347;-60
2022/11/12 10:59:09;;;;;;;;;;;;;;;14.10;100.00;164251.66;5072103;28;19912;-60
2022/11/12 11:01:34;;;;;;;;;;;;;;;13.85;100.00;164186.72;5070455;28;19938;-60
2022/11/12 11:04:00;;;;;;;;;;;;;;;13.77;100.00;164165.06;5071920;28;19930;-60
2022/11/12 11:06:25;;;;;;;;;;;;;;;13.81;100.00;164175.94;5055310;28;19921;-60
2022/11/12 11:09:09;;;;;;;;;;;;;;;13.75;100.00;164159.66;5051403;28;19909;-61
2022/11/12 11:11:35;;;;;;;;;;;;;;;13.78;100.00;164167.78;5050702;28;19919;-60
2022/11/12 11:14:18;;;;;;;;;;;;;;;13.93;100.00;164208.38;5068313;28;20014;-60
2022/11/12 11:16:51;;;;;;;;;;;;;;;14.05;100.00;164238.09;5069668;28;19912;-60
2022/11/12 11:19:16;;;;;;;;;;;;;;;14.09;100.00;164248.94;5071631;28;19920;-60
2022/11/12 11:21:47;;;;;;;;;;;;;;;14.18;100.00;164273.31;5070401;28;19970;-59
2022/11/12 11:24:20;;;;;;;;;;;;;;;14.11;100.00;164254.38;5067869;28;20310;-60
2022/11/12 11:27:04;;;;;;;;;;;;;;;14.24;100.00;164289.53;5069810;28;20050;-59
2022/11/12 11:29:35;;;;;;;;;;;;;;;14.36;100.00;164319.28;5071752;28;19912;-60
2022/11/12 11:32:07;;;;;;;;;;;;;;;14.50;100.00;164357.16;5069758;28;19931;-60
2022/11/12 11:34:57;;;;;;;;;;;;;;;14.45;100.00;164343.66;5071171;28;19920;-59
2022/11/12 11:37:34;;;;;;;;;;;;;;;14.57;100.00;164376.09;5070193;28;20286;-59
2022/11/12 11:40:09;;;;;;;;;;;;;;;14.44;100.00;164340.94;5071169;28;19912;-60
2022/11/12 11:42:40;;;;;;;;;;;;;;;14.63;100.00;164389.66;5070431;28;19912;-60
2022/11/12 11:45:14;;;;;;;;;;;;;;;14.66;100.00;164399.19;5071687;28;19916;-60
2022/11/12 11:47:53;;;;;;;;;;;;;;;14.72;100.00;164414.03;5069619;28;20303;-59
2022/11/12 11:50:21;;;;;;;;;;;;;;;14.74;100.00;164419.47;5071461;28;20390;-60
2022/11/12 11:53:05;;;;;;;;;;;;;;;14.74;100.00;164420.78;5069518;28;19916;-60
2022/11/12 11:55:56;;;;;;;;;;;;;;;14.66;100.00;164397.81;5071197;28;19920;-60
2022/11/12 11:58:21;;;;;;;;;;;;;;;14.81;100.00;164438.41;5069539;28;19919;-60
2022/11/12 12:00:54;;;;;;;;;;;;;;;14.90;100.00;164462.78;5070925;28;19908;-60
2022/11/12 12:03:25;;;;;;;;;;;;;;;14.90;100.00;164461.38;5067736;28;19913;-60
2022/11/12 12:06:06;;;;;;;;;;;;;;;14.86;100.00;164450.59;5070526;28;20321;-59
2022/11/12 12:08:34;;;;;;;;;;;;;;;14.89;100.00;164460.06;5069322;28;19920;-60
2022/11/12 12:11:06;;;;;;;;;;;;;;;14.99;100.00;164484.44;5062324;28;19999;-60
2022/11/12 12:13:54;;;;;;;;;;;;;;;14.97;100.00;164480.34;5069446;28;19924;-60
2022/11/12 12:16:25;;;;;;;;;;;;;;;15.05;100.00;164500.66;5068838;28;20279;-59
2022/11/12 12:18:59;;;;;;;;;;;;;;;15.05;100.00;164500.66;5069653;28;19909;-60
2022/11/12 12:21:27;;;;;;;;;;;;;;;14.89;100.00;164460.06;5068628;28;20370;-59
2022/11/12 12:23:56;;;;;;;;;;;;;;;14.78;100.00;164428.94;5069861;28;19909;-60
2022/11/12 12:26:24;;;;;;;;;;;;;;;14.79;100.00;164432.97;5069162;28;19915;-60
2022/11/12 12:28:58;;;;;;;;;;;;;;;14.65;100.00;164395.03;5070285;28;19955;-60
2022/11/12 12:31:28;;;;;;;;;;;;;;;14.72;100.00;164415.41;5069176;28;19923;-60
2022/11/12 12:34:20;;;;;;;;;;;;;;;14.89;100.00;164460.06;5070823;28;19919;-60
2022/11/12 12:36:45;;;;;;;;;;;;;;;15.11;100.00;164515.56;5067926;28;19912;-60
2022/11/12 12:39:17;;;;;;;;;;;;;;;15.16;100.00;164530.41;5070677;28;19913;-60
2022/11/12 12:41:45;;;;;;;;;;;;;;;15.36;100.00;164581.88;5069335;28;19913;-60
2022/11/12 12:44:10;;;;;;;;;;;;;;;15.30;100.00;164566.97;5071134;28;19915;-60
2022/11/12 12:46:41;;;;;;;;;;;;;;;15.32;100.00;164571.03;5069366;28;19912;-60
2022/11/12 12:49:10;;;;;;;;;;;;;;;15.46;100.00;164608.94;5070849;28;19908;-60
2022/11/12 12:51:35;;;;;;;;;;;;;;;15.43;100.00;164600.84;5069553;28;19993;-60